Merry Hill, North Carolina
Current Conditions -  °F | °C
As of 9:35 PM on Wednesday 26 Nov 2014 (Local Time) from KASJ Reporting Station
Overcast Overcast  
Wind Chill: 39°   Ceiling: 1500
Heat Index: 39°   Visibility: 10mi
Dew Point: 36°   Wind: 0mph
Humidity: 90%   Direction: NA
Pressure: 30.08"   Gusts: NA
Location:  36.2°N, 77.06°W
Report Text: KASJ 270235Z AUTO 00000KT 10SM OVC015 04/02 A3008 RMK AO2 T00370022
Loading
Personal Weather Stations






























Interactive Weather Map New forecast layout! Learn more

10-Day Weather Forecast

Advertisements
Track Severe Weather on mobile